createdAt,value
2022-11-02T00:01:40.178Z,7.97
2022-11-02T00:04:08.017Z,7.87
2022-11-02T00:06:35.672Z,7.92
2022-11-02T00:09:03.137Z,7.91
2022-11-02T00:11:30.985Z,7.97
2022-11-02T00:13:58.462Z,7.95
2022-11-02T00:16:26.101Z,7.97
2022-11-02T00:18:57.608Z,8.11
2022-11-02T00:21:27.278Z,8.11
2022-11-02T00:23:58.064Z,8.01
2022-11-02T00:26:28.041Z,7.96
2022-11-02T00:28:56.069Z,7.96
2022-11-02T00:31:23.461Z,7.91
2022-11-02T00:33:51.946Z,7.90
2022-11-02T00:36:19.942Z,7.93
2022-11-02T00:38:47.685Z,7.91
2022-11-02T00:41:15.319Z,8.02
2022-11-02T00:43:42.968Z,8.01
2022-11-02T00:46:10.532Z,7.85
2022-11-02T00:48:37.921Z,7.69
2022-11-02T00:51:05.972Z,7.68
2022-11-02T00:53:33.440Z,7.62
2022-11-02T00:56:01.270Z,7.60
2022-11-02T00:58:29.419Z,7.57
2022-11-02T01:00:57.107Z,7.56
2022-11-02T01:03:24.553Z,7.59
2022-11-02T01:05:52.247Z,7.69
2022-11-02T01:08:19.635Z,7.64
2022-11-02T01:10:48.367Z,7.58
2022-11-02T01:13:17.665Z,7.54
2022-11-02T01:15:45.078Z,7.55
2022-11-02T01:18:12.489Z,7.64
2022-11-02T01:20:40.178Z,7.65
2022-11-02T01:23:07.549Z,7.71
2022-11-02T01:25:34.942Z,7.78
2022-11-02T01:28:02.964Z,7.73
2022-11-02T01:30:30.540Z,7.78
2022-11-02T01:32:57.945Z,7.78
2022-11-02T01:35:27.117Z,7.75
2022-11-02T01:37:55.103Z,7.72
2022-11-02T01:40:22.614Z,7.73
2022-11-02T01:42:50.344Z,7.82
2022-11-02T01:45:17.941Z,7.93
2022-11-02T01:47:48.624Z,8.00
2022-11-02T01:50:21.009Z,7.98
2022-11-02T01:52:48.658Z,7.97
2022-11-02T01:55:19.469Z,7.99
2022-11-02T01:57:53.324Z,8.07
2022-11-02T02:00:21.461Z,8.05
2022-11-02T02:03:06.632Z,8.07
2022-11-02T02:05:40.931Z,8.05
2022-11-02T02:08:10.024Z,8.04
2022-11-02T02:10:37.445Z,8.15
2022-11-02T02:13:07.039Z,8.15
2022-11-02T02:15:45.335Z,8.09
2022-11-02T02:18:31.397Z,8.15
2022-11-02T02:21:14.026Z,8.15
2022-11-02T02:24:19.517Z,8.21
2022-11-02T02:27:07.666Z,8.19
2022-11-02T02:30:04.054Z,8.20
2022-11-02T02:32:39.808Z,8.19
2022-11-02T02:35:13.742Z,8.20
2022-11-02T02:37:51.864Z,8.24
2022-11-02T02:40:30.399Z,8.25
2022-11-02T02:43:02.033Z,8.25
2022-11-02T02:45:37.519Z,8.31
2022-11-02T02:48:13.253Z,8.38
2022-11-02T02:50:47.115Z,8.42
2022-11-02T02:53:16.644Z,8.48
2022-11-02T02:55:48.360Z,8.56
2022-11-02T02:58:21.201Z,8.54
2022-11-02T03:00:49.419Z,8.55
2022-11-02T03:03:21.350Z,8.64
2022-11-02T03:06:15.326Z,8.62
2022-11-02T03:08:52.827Z,8.65
2022-11-02T03:11:22.157Z,8.64
2022-11-02T03:14:40.581Z,8.53
2022-11-02T03:17:26.014Z,8.53
2022-11-02T03:20:30.838Z,8.51
2022-11-02T03:23:10.569Z,8.52
2022-11-02T03:25:50.024Z,8.49
2022-11-02T03:28:59.640Z,8.44
2022-11-02T03:31:58.605Z,8.53
2022-11-02T03:34:35.420Z,8.57
2022-11-02T03:37:03.779Z,8.57
2022-11-02T03:39:54.217Z,8.55
2022-11-02T03:42:27.997Z,8.58
2022-11-02T03:45:01.202Z,8.61
2022-11-02T03:47:33.183Z,8.62
2022-11-02T03:50:04.874Z,8.63
2022-11-02T03:52:34.514Z,8.61
2022-11-02T03:55:10.061Z,8.60
2022-11-02T03:57:51.215Z,8.56
2022-11-02T04:00:24.805Z,8.58
2022-11-02T04:03:04.138Z,8.48
2022-11-02T04:05:34.930Z,8.49
2022-11-02T04:08:23.005Z,8.59
2022-11-02T04:11:10.656Z,8.55
2022-11-02T04:13:57.137Z,8.55
2022-11-02T04:16:28.198Z,8.50
2022-11-02T04:19:15.684Z,8.42
2022-11-02T04:22:03.324Z,8.46
2022-11-02T04:24:51.050Z,8.40
2022-11-02T04:27:21.132Z,8.39
2022-11-02T04:29:49.381Z,8.46
2022-11-02T04:32:37.962Z,8.53
2022-11-02T04:35:07.247Z,8.49
2022-11-02T04:38:01.251Z,8.55
2022-11-02T04:40:29.601Z,8.53
2022-11-02T04:42:57.343Z,8.59
2022-11-02T04:45:24.892Z,8.55
2022-11-02T04:47:53.228Z,8.60
2022-11-02T04:50:21.587Z,8.65
2022-11-02T04:52:58.552Z,8.61
2022-11-02T04:55:27.255Z,8.59
2022-11-02T04:57:54.989Z,8.58
2022-11-02T05:00:23.925Z,8.56
2022-11-02T05:02:52.038Z,8.59
2022-11-02T05:05:20.163Z,8.73
2022-11-02T05:07:48.086Z,8.80
2022-11-02T05:10:16.210Z,8.66
2022-11-02T05:12:45.010Z,8.65
2022-11-02T05:15:12.935Z,8.60
2022-11-02T05:17:40.889Z,8.60
2022-11-02T05:20:08.911Z,8.66
2022-11-02T05:22:36.628Z,8.73
2022-11-02T05:25:04.664Z,8.81
2022-11-02T05:27:32.862Z,8.85
2022-11-02T05:30:00.478Z,8.81
2022-11-02T05:32:28.549Z,8.79
2022-11-02T05:34:56.192Z,8.84
2022-11-02T05:37:23.863Z,8.77
2022-11-02T05:39:51.621Z,8.79
2022-11-02T05:42:19.041Z,8.86
2022-11-02T05:44:46.505Z,8.83
2022-11-02T05:47:14.349Z,8.77
2022-11-02T05:49:41.723Z,8.78
2022-11-02T05:52:09.110Z,8.83
2022-11-02T05:54:36.846Z,8.88
2022-11-02T05:57:04.239Z,8.89
2022-11-02T05:59:31.623Z,8.91
2022-11-02T06:01:59.327Z,8.94
2022-11-02T06:04:27.174Z,8.98
2022-11-02T06:06:54.889Z,9.02
2022-11-02T06:09:22.286Z,8.98
2022-11-02T06:11:49.967Z,8.92
2022-11-02T06:14:17.372Z,8.97
2022-11-02T06:16:44.763Z,8.99
2022-11-02T06:19:12.532Z,8.96
2022-11-02T06:21:42.092Z,8.98
2022-11-02T06:24:12.198Z,9.06
2022-11-02T06:26:39.605Z,9.07
2022-11-02T06:29:06.980Z,8.98
2022-11-02T06:31:34.678Z,9.06
2022-11-02T06:34:02.203Z,9.21
2022-11-02T06:36:29.572Z,9.28
2022-11-02T06:38:57.446Z,9.35
2022-11-02T06:41:24.846Z,9.39
2022-11-02T06:43:52.339Z,9.48
2022-11-02T06:46:20.088Z,9.58
2022-11-02T06:48:48.192Z,9.62
2022-11-02T06:51:15.630Z,9.63
2022-11-02T06:53:43.374Z,9.63
2022-11-02T06:56:12.391Z,9.60
2022-11-02T06:58:39.773Z,9.65
2022-11-02T07:01:08.928Z,9.72
2022-11-02T07:03:36.582Z,9.79
2022-11-02T07:06:06.362Z,9.63
2022-11-02T07:08:36.333Z,9.61
2022-11-02T07:11:03.840Z,9.66
2022-11-02T07:13:31.233Z,9.74
2022-11-02T07:15:58.914Z,9.80
2022-11-02T07:18:26.290Z,9.80
2022-11-02T07:20:53.698Z,10.93
2022-11-02T07:23:24.144Z,10.57
2022-11-02T07:25:52.107Z,10.51
2022-11-02T07:28:19.910Z,10.72
2022-11-02T07:30:47.858Z,10.62
2022-11-02T07:33:15.237Z,10.51
2022-11-02T07:35:42.642Z,10.50
2022-11-02T07:38:11.510Z,10.46
2022-11-02T07:40:39.162Z,10.46
2022-11-02T07:43:07.296Z,10.43
2022-11-02T07:45:36.225Z,10.56
2022-11-02T07:48:03.730Z,10.60
2022-11-02T07:50:31.141Z,10.67
2022-11-02T07:52:59.369Z,10.74
2022-11-02T07:55:29.333Z,10.86
2022-11-02T07:58:08.109Z,10.90
2022-11-02T08:00:39.072Z,10.93
2022-11-02T08:03:09.262Z,11.00
2022-11-02T08:05:39.286Z,11.09
2022-11-02T08:08:18.258Z,11.14
2022-11-02T08:10:47.688Z,11.22
2022-11-02T08:13:18.327Z,11.21
2022-11-02T08:15:52.566Z,11.27
2022-11-02T08:18:22.951Z,11.28
2022-11-02T08:20:51.212Z,11.40
2022-11-02T08:23:19.977Z,11.45
2022-11-02T08:25:49.810Z,11.52
2022-11-02T08:28:23.215Z,11.62
2022-11-02T08:30:51.062Z,11.68
2022-11-02T08:33:19.832Z,11.71
2022-11-02T08:35:48.561Z,11.75
2022-11-02T08:38:17.364Z,11.75
2022-11-02T08:40:47.453Z,11.72
2022-11-02T08:43:15.383Z,11.73
2022-11-02T08:48:33.025Z,11.79
2022-11-02T08:51:00.753Z,11.87
2022-11-02T08:53:28.446Z,11.94
2022-11-02T08:55:59.271Z,12.00
2022-11-02T08:58:27.193Z,12.09
2022-11-02T09:00:55.590Z,12.16
2022-11-02T09:03:26.851Z,12.24
2022-11-02T09:06:02.496Z,12.31
2022-11-02T09:08:30.468Z,12.55
2022-11-02T09:11:03.765Z,12.66
2022-11-02T09:13:31.598Z,12.76
2022-11-02T09:16:00.454Z,12.79
2022-11-02T09:18:28.415Z,12.82
2022-11-02T09:20:56.447Z,12.87
2022-11-02T09:23:24.171Z,12.93
2022-11-02T09:25:51.610Z,12.95
2022-11-02T09:28:19.348Z,13.02
2022-11-02T09:30:47.364Z,13.10
2022-11-02T09:33:15.132Z,13.16
2022-11-02T09:35:45.451Z,13.26
2022-11-02T09:38:14.063Z,13.32
2022-11-02T09:41:18.431Z,13.41
2022-11-02T09:44:04.863Z,14.02
2022-11-02T09:46:40.097Z,14.46
2022-11-02T09:49:16.014Z,14.62
2022-11-02T09:51:52.150Z,14.90
2022-11-02T09:54:39.291Z,15.08
2022-11-02T09:57:11.652Z,15.01
2022-11-02T09:59:41.445Z,14.84
2022-11-02T10:02:20.882Z,14.82
2022-11-02T10:04:51.363Z,14.88
2022-11-02T10:07:43.602Z,15.05
2022-11-02T10:10:18.110Z,15.12
2022-11-02T10:13:06.959Z,15.17
2022-11-02T10:16:33.169Z,15.27
2022-11-02T10:19:03.065Z,15.24
2022-11-02T10:21:34.889Z,15.35
2022-11-02T10:24:29.438Z,15.46
2022-11-02T10:27:01.047Z,15.52
2022-11-02T10:30:06.628Z,15.50
2022-11-02T10:32:38.680Z,15.63
2022-11-02T10:35:34.015Z,15.69
2022-11-02T10:38:43.246Z,16.03
2022-11-02T10:41:24.161Z,16.12
2022-11-02T10:44:20.238Z,16.19
2022-11-02T10:46:56.745Z,16.20
2022-11-02T10:49:24.408Z,16.23
2022-11-02T10:51:51.878Z,16.35
2022-11-02T10:54:24.044Z,16.89
2022-11-02T10:56:59.044Z,17.26
2022-11-02T10:59:26.979Z,17.14
2022-11-02T11:01:58.920Z,17.34
2022-11-02T11:04:28.615Z,17.48
2022-11-02T11:06:57.121Z,17.51
2022-11-02T11:09:32.098Z,17.79
2022-11-02T11:12:03.295Z,17.95
2022-11-02T11:20:38.150Z,18.83
2022-11-02T11:23:20.793Z,19.17
2022-11-02T11:26:25.805Z,19.31
2022-11-02T11:28:56.101Z,19.47
2022-11-02T11:31:24.267Z,19.45
2022-11-02T11:33:56.027Z,19.63
2022-11-02T11:36:35.638Z,19.73
2022-11-02T11:39:22.433Z,19.77
2022-11-02T11:41:50.452Z,19.90
2022-11-02T11:44:18.152Z,20.04
2022-11-02T11:46:49.325Z,20.02
2022-11-02T11:52:30.915Z,20.30
2022-11-02T11:55:26.821Z,20.22
2022-11-02T11:58:16.114Z,20.39
2022-11-02T12:00:44.271Z,20.52
2022-11-02T12:03:13.950Z,20.65
2022-11-02T12:06:13.900Z,20.67
2022-11-02T12:09:04.212Z,20.69
2022-11-02T12:11:37.974Z,20.72
2022-11-02T12:14:23.683Z,20.82
2022-11-02T12:17:08.577Z,20.99
2022-11-02T12:19:50.896Z,21.07
2022-11-02T12:22:34.657Z,21.11
2022-11-02T12:25:28.039Z,21.03
2022-11-02T12:28:24.934Z,21.02
2022-11-02T12:31:35.340Z,21.09
2022-11-02T12:34:05.715Z,21.19
2022-11-02T12:37:32.654Z,21.24
2022-11-02T12:39:48.402Z,21.28
2022-11-02T12:42:37.893Z,21.32
2022-11-02T12:45:21.494Z,21.40
2022-11-02T12:48:00.832Z,21.51
2022-11-02T12:50:52.073Z,21.40
2022-11-02T12:53:57.661Z,21.52
2022-11-02T12:56:33.167Z,21.54
2022-11-02T12:59:01.036Z,21.47
2022-11-02T13:01:35.936Z,21.59
2022-11-02T13:04:26.139Z,21.50
2022-11-02T13:07:03.883Z,21.60
2022-11-02T13:09:40.417Z,21.42
2022-11-02T13:12:15.122Z,21.28
2022-11-02T13:14:46.237Z,21.16
2022-11-02T13:17:20.835Z,20.87
2022-11-02T13:19:55.804Z,20.63
2022-11-02T13:22:28.740Z,20.44
2022-11-02T13:25:12.665Z,20.26
2022-11-02T13:27:48.733Z,20.05
2022-11-02T13:30:18.590Z,19.76
2022-11-02T13:32:58.818Z,19.64
2022-11-02T13:35:41.117Z,19.51
2022-11-02T13:38:46.078Z,19.35
2022-11-02T13:41:39.935Z,19.20
2022-11-02T13:44:19.531Z,19.08
2022-11-02T13:47:06.714Z,19.04
2022-11-02T13:49:37.206Z,18.91
2022-11-02T13:52:21.132Z,18.84
2022-11-02T13:57:38.752Z,18.55
2022-11-02T14:00:41.347Z,18.49
2022-11-02T14:03:27.670Z,18.35
2022-11-02T14:06:01.005Z,18.22
2022-11-02T14:08:36.336Z,18.13
2022-11-02T14:11:08.972Z,18.07
2022-11-02T14:13:52.075Z,17.97
2022-11-02T14:16:47.775Z,17.91
2022-11-02T14:19:20.267Z,17.84
2022-11-02T14:21:48.189Z,17.82
2022-11-02T14:24:39.674Z,17.80
2022-11-02T14:27:12.965Z,17.75
2022-11-02T14:29:46.895Z,17.67
2022-11-02T14:32:17.223Z,17.64
2022-11-02T14:34:58.623Z,17.63
2022-11-02T14:38:10.436Z,17.62
2022-11-02T14:41:11.441Z,17.61
2022-11-02T14:43:47.995Z,17.55
2022-11-02T14:46:37.177Z,17.55
2022-11-02T14:49:05.991Z,17.50
2022-11-02T14:51:38.074Z,17.45
2022-11-02T14:54:18.822Z,17.39
2022-11-02T14:56:48.196Z,17.38
2022-11-02T14:59:24.615Z,17.33
2022-11-02T15:02:05.227Z,17.26
2022-11-02T15:04:35.409Z,17.24
2022-11-02T15:07:05.819Z,17.22
2022-11-02T15:09:55.279Z,17.17
2022-11-02T15:12:31.014Z,17.11
2022-11-02T15:15:04.614Z,17.08
2022-11-02T15:17:32.225Z,17.07
2022-11-02T15:19:59.555Z,17.05
2022-11-02T15:22:34.690Z,17.01
2022-11-02T15:25:16.331Z,16.98
2022-11-02T15:27:45.097Z,16.92
2022-11-02T15:30:22.532Z,16.84
2022-11-02T15:33:01.351Z,16.77
2022-11-02T15:35:39.421Z,16.77
2022-11-02T15:38:30.521Z,16.68
2022-11-02T15:41:18.101Z,16.67
2022-11-02T15:44:03.869Z,16.62
2022-11-02T15:47:01.054Z,16.57
2022-11-02T15:49:52.506Z,16.52
2022-11-02T15:53:08.584Z,16.43
2022-11-02T15:56:00.500Z,16.41
2022-11-02T15:58:46.819Z,16.35
2022-11-02T16:01:19.055Z,16.34
2022-11-02T16:03:58.014Z,16.31
2022-11-02T16:06:32.525Z,16.30
2022-11-02T16:09:02.016Z,16.27
2022-11-02T16:11:29.930Z,16.24
2022-11-02T16:14:18.159Z,16.20
2022-11-02T16:16:47.868Z,16.14
2022-11-02T16:19:20.548Z,16.03
2022-11-02T16:21:49.543Z,15.99
2022-11-02T16:24:18.216Z,15.92
2022-11-02T16:26:46.753Z,15.91
2022-11-02T16:29:32.426Z,15.89
2022-11-02T16:32:00.520Z,15.86
2022-11-02T16:34:32.207Z,15.80
2022-11-02T16:37:07.330Z,15.74
2022-11-02T16:39:41.999Z,15.71
2022-11-02T16:42:37.067Z,15.69
2022-11-02T16:45:06.678Z,15.65
2022-11-02T16:47:41.752Z,15.61
2022-11-02T16:50:26.544Z,15.59
2022-11-02T16:52:59.602Z,15.55
2022-11-02T16:55:40.798Z,15.50
2022-11-02T16:58:14.850Z,15.52
2022-11-02T17:01:05.248Z,15.43
2022-11-02T17:03:34.503Z,15.44
2022-11-02T17:06:05.930Z,15.44
2022-11-02T17:08:35.823Z,15.42
2022-11-02T17:11:13.529Z,15.43
2022-11-02T17:13:53.388Z,15.40
2022-11-02T17:16:21.869Z,15.40
2022-11-02T17:18:49.495Z,15.34
2022-11-02T17:21:22.805Z,15.32
2022-11-02T17:23:51.242Z,15.32
2022-11-02T17:26:37.387Z,15.29
2022-11-02T17:29:26.365Z,15.25
2022-11-02T17:32:01.077Z,15.23
2022-11-02T17:34:28.933Z,15.17
2022-11-02T17:36:56.474Z,15.14
2022-11-02T17:39:23.982Z,15.13
2022-11-02T17:42:15.538Z,15.13
2022-11-02T17:44:45.443Z,15.11
2022-11-02T17:47:17.699Z,15.11
2022-11-02T17:49:45.461Z,15.09
2022-11-02T17:52:16.512Z,15.06
2022-11-02T17:54:44.031Z,15.08
2022-11-02T17:57:15.498Z,15.08
2022-11-02T17:59:43.180Z,15.07
2022-11-02T18:02:15.232Z,15.04
2022-11-02T18:07:16.068Z,14.94
2022-11-02T18:09:43.758Z,14.93
2022-11-02T18:12:15.015Z,14.91
2022-11-02T18:14:42.479Z,14.90
2022-11-02T18:17:10.313Z,14.88
2022-11-02T18:19:37.734Z,14.86
2022-11-02T18:22:05.150Z,14.91
2022-11-02T18:24:32.849Z,14.95
2022-11-02T18:27:00.234Z,14.93
2022-11-02T18:29:27.647Z,14.94
2022-11-02T18:31:55.329Z,14.88
2022-11-02T18:34:22.882Z,14.87
2022-11-02T18:36:50.424Z,14.84
2022-11-02T18:39:18.204Z,14.84
2022-11-02T18:41:46.096Z,14.83
2022-11-02T18:44:15.704Z,14.81
2022-11-02T18:46:43.648Z,14.76
2022-11-02T18:49:11.124Z,14.74
2022-11-02T18:51:42.942Z,14.71
2022-11-02T18:54:11.027Z,14.72
2022-11-02T18:56:38.429Z,14.71
2022-11-02T18:59:06.098Z,14.71
2022-11-02T19:01:34.504Z,14.66
2022-11-02T19:04:02.284Z,14.63
2022-11-02T19:06:51.186Z,14.63
2022-11-02T19:09:21.601Z,14.59
2022-11-02T19:12:01.080Z,14.60
2022-11-02T19:14:34.783Z,14.60
2022-11-02T19:17:02.689Z,14.63
2022-11-02T19:19:30.557Z,14.61
2022-11-02T19:21:58.093Z,14.63
2022-11-02T19:24:25.505Z,14.61
2022-11-02T19:26:53.632Z,14.60
2022-11-02T19:29:21.249Z,14.60
2022-11-02T19:31:48.714Z,14.59
2022-11-02T19:34:16.823Z,14.62
2022-11-02T19:36:44.237Z,14.61
2022-11-02T19:39:11.850Z,14.59
2022-11-02T19:41:39.914Z,14.60
2022-11-02T19:44:07.383Z,14.61
2022-11-02T19:46:35.022Z,14.63
2022-11-02T19:49:03.007Z,14.62
2022-11-02T19:51:30.973Z,14.63
2022-11-02T19:54:00.486Z,14.67
2022-11-02T19:56:33.406Z,14.69
2022-11-02T19:59:01.348Z,14.74
2022-11-02T20:01:32.231Z,14.76
2022-11-02T20:04:00.591Z,14.78
2022-11-02T20:06:33.500Z,14.77
2022-11-02T20:09:02.276Z,14.78
2022-11-02T20:11:30.564Z,14.77
2022-11-02T20:14:00.180Z,14.79
2022-11-02T20:16:28.229Z,14.81
2022-11-02T20:18:56.494Z,14.82
2022-11-02T20:21:33.055Z,14.80
2022-11-02T20:24:03.997Z,14.80
2022-11-02T20:26:34.122Z,14.82
2022-11-02T20:29:03.379Z,14.81
2022-11-02T20:31:38.721Z,14.78
2022-11-02T20:34:08.345Z,14.78
2022-11-02T20:36:36.139Z,14.78
2022-11-02T20:39:05.510Z,14.80
2022-11-02T20:41:32.925Z,14.80
2022-11-02T20:44:00.630Z,14.76
2022-11-02T20:46:39.065Z,14.72
2022-11-02T20:49:20.520Z,14.70
2022-11-02T20:51:51.126Z,14.67
2022-11-02T20:54:20.007Z,14.64
2022-11-02T20:56:48.778Z,14.59
2022-11-02T20:59:16.221Z,14.55
2022-11-02T21:01:44.686Z,14.52
2022-11-02T21:04:18.522Z,14.53
2022-11-02T21:06:49.582Z,14.46
2022-11-02T21:09:17.811Z,14.45
2022-11-02T21:12:03.967Z,14.44
2022-11-02T21:14:31.810Z,14.39
2022-11-02T21:16:59.271Z,14.35
2022-11-02T21:19:26.710Z,14.34
2022-11-02T21:21:59.334Z,14.28
2022-11-02T21:24:28.436Z,14.25
2022-11-02T21:26:56.255Z,14.20
2022-11-02T21:29:24.194Z,14.19
2022-11-02T21:31:51.638Z,14.18
2022-11-02T21:34:19.381Z,14.21
2022-11-02T21:36:48.504Z,14.19
2022-11-02T21:39:16.029Z,14.20
2022-11-02T21:41:43.794Z,14.22
2022-11-02T21:44:12.064Z,14.22
2022-11-02T21:46:39.527Z,14.20
2022-11-02T21:49:07.515Z,14.22
2022-11-02T21:51:36.145Z,14.22
2022-11-02T21:54:03.684Z,14.17
2022-11-02T21:56:32.079Z,14.18
2022-11-02T21:58:59.680Z,14.14
2022-11-02T22:01:45.208Z,14.16
2022-11-02T22:04:31.908Z,14.19
2022-11-02T22:06:59.749Z,14.23
2022-11-02T22:09:28.497Z,14.21
2022-11-02T22:12:15.618Z,14.23
2022-11-02T22:14:44.728Z,14.21
2022-11-02T22:17:21.771Z,14.21
2022-11-02T22:19:56.389Z,14.19
2022-11-02T22:22:24.010Z,14.19
2022-11-02T22:24:51.385Z,14.22
2022-11-02T22:27:19.058Z,14.21
2022-11-02T22:29:46.480Z,14.24
2022-11-02T22:32:14.667Z,14.23
2022-11-02T22:34:43.741Z,14.24
2022-11-02T22:37:29.964Z,14.24
2022-11-02T22:39:57.649Z,14.25
2022-11-02T22:42:25.045Z,14.26
2022-11-02T22:44:55.144Z,14.22
2022-11-02T22:47:22.845Z,14.18
2022-11-02T22:49:50.218Z,14.14
2022-11-02T22:52:17.607Z,14.04
2022-11-02T22:54:45.273Z,14.05
2022-11-02T22:57:12.682Z,14.05
2022-11-02T22:59:40.106Z,14.03
2022-11-02T23:02:07.809Z,13.96
2022-11-02T23:04:35.246Z,13.92
2022-11-02T23:07:02.734Z,13.90
2022-11-02T23:09:30.406Z,13.84
2022-11-02T23:11:57.849Z,13.84
2022-11-02T23:14:25.238Z,13.82
2022-11-02T23:16:53.988Z,13.80
2022-11-02T23:19:30.944Z,13.76
2022-11-02T23:22:26.359Z,13.75
2022-11-02T23:25:11.311Z,13.74
2022-11-02T23:31:13.825Z,13.66
2022-11-02T23:33:41.627Z,13.64
2022-11-02T23:36:12.738Z,13.69
2022-11-02T23:39:01.297Z,13.74
2022-11-02T23:41:30.242Z,13.78
2022-11-02T23:44:18.933Z,13.78
2022-11-02T23:46:51.331Z,13.82
2022-11-02T23:49:19.357Z,13.82
2022-11-02T23:52:05.228Z,13.83
2022-11-02T23:54:51.709Z,13.81
2022-11-02T23:57:20.287Z,13.79
2022-11-02T23:59:48.298Z,13.80
